createdAt,value
2018-12-03T00:00:20.810Z,3.00
2018-12-03T00:02:49.584Z,2.67
2018-12-03T00:05:17.772Z,2.80
2018-12-03T00:07:45.969Z,2.33
2018-12-03T00:10:14.229Z,3.17
2018-12-03T00:12:42.387Z,2.93
2018-12-03T00:15:10.584Z,2.70
2018-12-03T00:17:38.844Z,3.37
2018-12-03T00:20:08.923Z,3.40
2018-12-03T00:22:37.164Z,3.40
2018-12-03T00:25:06.596Z,3.20
2018-12-03T00:27:34.973Z,2.97
2018-12-03T00:30:03.325Z,3.53
2018-12-03T00:32:31.568Z,3.63
2018-12-03T00:34:59.753Z,3.30
2018-12-03T00:37:27.945Z,3.30
2018-12-03T00:39:56.198Z,3.23
2018-12-03T00:42:24.373Z,3.17
2018-12-03T00:44:52.569Z,3.00
2018-12-03T00:47:20.805Z,3.23
2018-12-03T00:49:48.969Z,3.03
2018-12-03T00:52:17.175Z,3.03
2018-12-03T00:54:45.321Z,3.23
2018-12-03T00:57:13.493Z,3.10
2018-12-03T00:59:42.218Z,3.00
2018-12-03T01:02:15.837Z,3.00
2018-12-03T01:04:44.073Z,2.73
2018-12-03T01:07:12.232Z,2.60
2018-12-03T01:09:40.401Z,2.30
2018-12-03T01:12:08.601Z,2.63
2018-12-03T01:14:36.745Z,2.70
2018-12-03T01:17:05.297Z,2.00
2018-12-03T01:19:33.528Z,2.23
2018-12-03T01:22:01.678Z,2.10
2018-12-03T01:24:29.863Z,2.40
2018-12-03T01:26:58.053Z,2.10
2018-12-03T01:29:26.197Z,2.13
2018-12-03T01:31:54.372Z,1.87
2018-12-03T01:34:22.609Z,1.97
2018-12-03T01:36:50.822Z,2.20
2018-12-03T01:39:18.998Z,2.30
2018-12-03T01:41:47.197Z,1.93
2018-12-03T01:44:15.337Z,1.83
2018-12-03T01:46:43.517Z,1.90
2018-12-03T01:49:11.706Z,1.63
2018-12-03T01:51:39.866Z,1.80
2018-12-03T01:54:08.029Z,1.97
2018-12-03T01:56:36.232Z,1.80
2018-12-03T01:59:05.053Z,1.80
2018-12-03T02:01:33.572Z,1.80
2018-12-03T02:04:01.797Z,2.10
2018-12-03T02:06:30.024Z,1.70
2018-12-03T02:08:58.163Z,1.47
2018-12-03T02:11:26.329Z,1.90
2018-12-03T02:13:54.560Z,1.53
2018-12-03T02:16:22.721Z,1.70
2018-12-03T02:18:50.977Z,1.50
2018-12-03T02:21:19.169Z,1.70
2018-12-03T02:23:47.345Z,1.77
2018-12-03T02:26:15.548Z,1.70
2018-12-03T02:28:43.789Z,1.83
2018-12-03T02:31:11.972Z,1.90
2018-12-03T02:33:40.166Z,1.57
2018-12-03T02:36:08.317Z,1.50
2018-12-03T02:38:36.489Z,1.80
2018-12-03T02:41:04.727Z,1.87
2018-12-03T02:43:32.934Z,1.60
2018-12-03T02:46:01.117Z,1.93
2018-12-03T02:48:29.307Z,2.00
2018-12-03T02:50:57.458Z,2.10
2018-12-03T02:53:25.642Z,2.10
2018-12-03T02:55:53.827Z,1.90
2018-12-03T02:58:21.972Z,2.00
2018-12-03T03:00:50.149Z,2.20
2018-12-03T03:03:19.483Z,1.90
2018-12-03T03:05:47.721Z,1.87
2018-12-03T03:08:15.896Z,1.80
2018-12-03T03:10:44.351Z,1.87
2018-12-03T03:13:12.553Z,1.70
2018-12-03T03:15:40.725Z,1.50
2018-12-03T03:18:08.921Z,1.40
2018-12-03T03:20:37.065Z,1.30
2018-12-03T03:23:05.822Z,0.90
2018-12-03T03:25:34.062Z,1.07
2018-12-03T03:28:02.301Z,0.90
2018-12-03T03:30:30.482Z,0.97
2018-12-03T03:32:58.682Z,1.00
2018-12-03T03:35:26.823Z,0.60
2018-12-03T03:37:55.008Z,1.00
2018-12-03T03:40:23.189Z,1.00
2018-12-03T03:42:51.340Z,0.80
2018-12-03T03:45:22.881Z,1.00
2018-12-03T03:47:51.108Z,0.97
2018-12-03T03:50:19.388Z,1.00
2018-12-03T03:52:47.660Z,1.10
2018-12-03T03:55:15.933Z,0.83
2018-12-03T03:57:44.077Z,1.10
2018-12-03T04:00:13.374Z,0.93
2018-12-03T04:02:41.556Z,0.90
2018-12-03T04:05:12.353Z,1.03
2018-12-03T04:07:41.264Z,0.73
2018-12-03T04:10:12.065Z,0.83
2018-12-03T04:12:41.094Z,0.90
2018-12-03T04:15:13.154Z,0.77
2018-12-03T04:17:41.372Z,0.90
2018-12-03T04:20:16.770Z,0.83
2018-12-03T04:22:49.250Z,0.90
2018-12-03T04:25:17.430Z,0.90
2018-12-03T04:27:45.982Z,1.00
2018-12-03T04:30:15.516Z,1.13
2018-12-03T04:32:43.688Z,0.80
2018-12-03T04:35:12.467Z,1.30
2018-12-03T04:37:40.954Z,1.10
2018-12-03T04:40:10.421Z,1.43
2018-12-03T04:42:38.641Z,1.40
2018-12-03T04:45:09.157Z,1.20
2018-12-03T04:47:37.381Z,1.13
2018-12-03T04:50:11.961Z,2.70
2018-12-03T04:52:40.138Z,1.63
2018-12-03T04:55:08.375Z,1.50
2018-12-03T04:57:36.613Z,1.47
2018-12-03T05:00:09.229Z,1.10
2018-12-03T05:02:37.463Z,1.40
2018-12-03T05:05:06.597Z,1.30
2018-12-03T05:07:34.808Z,1.10
2018-12-03T05:10:03.797Z,1.33
2018-12-03T05:12:31.973Z,1.10
2018-12-03T05:15:00.153Z,1.60
2018-12-03T05:17:28.349Z,1.63
2018-12-03T05:19:56.506Z,1.80
2018-12-03T05:22:24.669Z,1.30
2018-12-03T05:24:52.876Z,2.00
2018-12-03T05:27:21.117Z,1.70
2018-12-03T05:29:49.292Z,2.00
2018-12-03T05:32:17.497Z,1.87
2018-12-03T05:34:45.773Z,1.50
2018-12-03T05:37:14.013Z,2.10
2018-12-03T05:39:42.210Z,2.47
2018-12-03T05:42:10.361Z,2.23
2018-12-03T05:44:38.536Z,2.27
2018-12-03T05:47:06.737Z,2.23
2018-12-03T05:49:34.885Z,2.10
2018-12-03T05:52:03.058Z,2.30
2018-12-03T05:54:31.331Z,1.53
2018-12-03T05:56:59.505Z,1.53
2018-12-03T05:59:27.681Z,1.40
2018-12-03T06:01:55.922Z,1.50
2018-12-03T06:04:24.129Z,1.47
2018-12-03T06:06:52.379Z,1.13
2018-12-03T06:09:20.603Z,1.53
2018-12-03T06:11:48.776Z,1.70
2018-12-03T06:14:16.921Z,1.83
2018-12-03T06:16:45.149Z,1.90
2018-12-03T06:19:13.453Z,1.57
2018-12-03T06:21:41.652Z,1.57
2018-12-03T06:24:09.871Z,1.50
2018-12-03T06:26:38.108Z,1.30
2018-12-03T06:29:06.268Z,1.60
2018-12-03T06:31:34.460Z,1.40
2018-12-03T06:34:02.616Z,1.47
2018-12-03T06:36:30.797Z,1.17
2018-12-03T06:38:58.997Z,1.07
2018-12-03T06:41:27.253Z,1.03
2018-12-03T06:43:55.414Z,1.00
2018-12-03T06:46:23.608Z,1.30
2018-12-03T06:48:52.789Z,1.50
2018-12-03T06:51:20.960Z,1.30
2018-12-03T06:53:49.153Z,1.13
2018-12-03T06:56:17.301Z,1.00
2018-12-03T06:58:45.508Z,2.07
2018-12-03T07:01:13.781Z,1.40
2018-12-03T07:03:41.926Z,1.20
2018-12-03T07:06:10.101Z,0.90
2018-12-03T07:08:38.288Z,1.20
2018-12-03T07:11:06.553Z,0.70
2018-12-03T07:13:34.736Z,0.83
2018-12-03T07:16:03.025Z,0.60
2018-12-03T07:18:31.276Z,0.70
2018-12-03T07:20:59.463Z,0.90
2018-12-03T07:23:27.653Z,0.70
2018-12-03T07:25:55.916Z,0.67
2018-12-03T07:28:24.106Z,1.10
2018-12-03T07:30:52.273Z,0.60
2018-12-03T07:33:20.421Z,0.70
2018-12-03T07:35:48.638Z,1.10
2018-12-03T07:38:16.953Z,0.93
2018-12-03T07:40:45.182Z,1.17
2018-12-03T07:43:13.416Z,1.20
2018-12-03T07:45:41.653Z,1.10
2018-12-03T07:48:09.893Z,1.00
2018-12-03T07:50:38.113Z,1.10
2018-12-03T07:53:06.414Z,0.70
2018-12-03T07:55:34.689Z,1.10
2018-12-03T07:58:04.977Z,0.80
2018-12-03T08:00:39.529Z,0.93
2018-12-03T08:03:07.718Z,0.97
2018-12-03T08:05:35.893Z,0.80
2018-12-03T08:08:04.108Z,1.00
2018-12-03T08:10:32.333Z,1.10
2018-12-03T08:13:00.617Z,1.10
2018-12-03T08:15:28.804Z,1.00
2018-12-03T08:18:01.534Z,1.10
2018-12-03T08:20:33.001Z,0.90
2018-12-03T08:23:03.576Z,0.60
2018-12-03T08:25:31.808Z,0.60
2018-12-03T08:28:00.025Z,0.60
2018-12-03T08:30:28.274Z,0.70
2018-12-03T08:32:56.440Z,0.50
2018-12-03T08:35:24.640Z,0.50
2018-12-03T08:37:52.888Z,0.60
2018-12-03T08:40:21.070Z,0.50
2018-12-03T08:42:52.609Z,0.70
2018-12-03T08:45:21.883Z,0.70
2018-12-03T08:47:50.678Z,0.83
2018-12-03T08:50:26.086Z,0.70
2018-12-03T08:52:55.229Z,0.70
2018-12-03T08:55:23.433Z,0.70
2018-12-03T08:57:51.617Z,0.80
2018-12-03T09:00:28.787Z,0.80
2018-12-03T09:03:02.442Z,0.90
2018-12-03T09:05:32.157Z,0.90
2018-12-03T09:08:00.370Z,0.80
2018-12-03T09:10:28.591Z,0.70
2018-12-03T09:12:57.293Z,0.70
2018-12-03T09:15:25.637Z,0.80
2018-12-03T09:17:53.892Z,0.80
2018-12-03T09:20:22.069Z,0.70
2018-12-03T09:22:50.224Z,0.60
2018-12-03T09:25:22.825Z,0.50
2018-12-03T09:27:51.185Z,0.70
2018-12-03T09:30:19.449Z,0.90
2018-12-03T09:32:47.876Z,0.60
2018-12-03T09:35:16.109Z,0.80
2018-12-03T09:37:44.280Z,0.77
2018-12-03T09:40:28.748Z,0.53
2018-12-03T09:42:56.978Z,0.73
2018-12-03T09:45:25.188Z,0.73
2018-12-03T09:47:54.467Z,0.67
2018-12-03T09:50:22.767Z,0.70
2018-12-03T09:52:50.985Z,0.50
2018-12-03T09:55:23.292Z,0.57
2018-12-03T09:58:02.933Z,0.67
2018-12-03T10:00:31.165Z,0.67
2018-12-03T10:03:01.102Z,0.63
2018-12-03T10:05:34.122Z,0.60
2018-12-03T10:08:02.298Z,0.77
2018-12-03T10:10:30.468Z,0.50
2018-12-03T10:13:04.568Z,0.53
2018-12-03T10:15:32.752Z,0.77
2018-12-03T10:18:00.929Z,0.50
2018-12-03T10:20:29.126Z,0.60
2018-12-03T10:22:57.282Z,0.80
2018-12-03T10:25:25.451Z,0.97
2018-12-03T10:28:12.856Z,0.50
2018-12-03T10:30:41.061Z,0.70
2018-12-03T10:33:09.221Z,0.70
2018-12-03T10:35:38.705Z,0.77
2018-12-03T10:38:15.162Z,0.90
2018-12-03T10:40:47.558Z,0.97
2018-12-03T10:43:15.735Z,0.90
2018-12-03T10:45:43.908Z,0.50
2018-12-03T10:48:12.121Z,0.70
2018-12-03T10:50:40.361Z,0.53
2018-12-03T10:53:08.532Z,0.50
2018-12-03T10:55:41.619Z,0.80
2018-12-03T10:58:11.801Z,0.73
2018-12-03T11:00:45.444Z,0.70
2018-12-03T11:03:14.749Z,0.60
2018-12-03T11:06:21.416Z,0.60
2018-12-03T11:08:49.593Z,0.60
2018-12-03T11:11:17.760Z,0.40
2018-12-03T11:13:45.961Z,0.60
2018-12-03T11:16:20.734Z,0.50
2018-12-03T11:18:51.589Z,0.40
2018-12-03T11:21:19.789Z,0.60
2018-12-03T11:23:47.963Z,1.50
2018-12-03T11:26:16.152Z,0.90
2018-12-03T11:28:52.997Z,0.60
2018-12-03T11:31:22.906Z,0.60
2018-12-03T11:33:51.091Z,0.80
2018-12-03T11:36:29.494Z,0.60
2018-12-03T11:39:03.265Z,0.70
2018-12-03T11:41:31.517Z,0.60
2018-12-03T11:43:59.657Z,0.90
2018-12-03T11:46:27.833Z,0.50
2018-12-03T11:48:56.025Z,0.47
2018-12-03T11:51:24.180Z,0.93
2018-12-03T11:53:52.350Z,0.80
2018-12-03T11:56:20.553Z,0.77
2018-12-03T11:58:48.700Z,0.73
2018-12-03T12:01:16.879Z,0.80
2018-12-03T12:03:45.085Z,0.73
2018-12-03T12:06:13.358Z,0.67
2018-12-03T12:08:41.588Z,0.73
2018-12-03T12:11:09.789Z,0.60
2018-12-03T12:13:38.756Z,0.60
2018-12-03T12:16:06.384Z,0.50
2018-12-03T12:18:34.633Z,0.70
2018-12-03T12:21:02.869Z,0.53
2018-12-03T12:23:31.065Z,0.60
2018-12-03T12:25:59.258Z,0.63
2018-12-03T12:28:27.497Z,0.77
2018-12-03T12:30:55.669Z,0.60
2018-12-03T12:33:23.865Z,0.60
2018-12-03T12:35:52.020Z,0.67
2018-12-03T12:38:20.185Z,0.80
2018-12-03T12:40:48.385Z,0.60
2018-12-03T12:43:16.528Z,0.60
2018-12-03T12:45:54.532Z,0.70
2018-12-03T12:48:22.704Z,0.60
2018-12-03T12:50:50.886Z,0.60
2018-12-03T12:53:19.109Z,0.60
2018-12-03T12:55:47.384Z,0.77
2018-12-03T12:58:15.616Z,0.63
2018-12-03T13:00:43.801Z,0.80
2018-12-03T13:03:11.953Z,0.97
2018-12-03T13:05:40.197Z,0.73
2018-12-03T13:08:08.532Z,0.63
2018-12-03T13:10:36.677Z,0.87
2018-12-03T13:13:04.863Z,0.70
2018-12-03T13:15:33.050Z,0.70
2018-12-03T13:18:01.253Z,0.60
2018-12-03T13:20:29.478Z,0.60
2018-12-03T13:22:57.697Z,0.70
2018-12-03T13:25:26.087Z,0.57
2018-12-03T13:27:54.768Z,0.60
2018-12-03T13:30:23.076Z,0.57
2018-12-03T13:32:51.257Z,0.63
2018-12-03T13:35:19.529Z,0.60
2018-12-03T13:37:47.749Z,0.60
2018-12-03T13:40:16.844Z,1.10
2018-12-03T13:42:46.069Z,0.53
2018-12-03T13:45:23.991Z,0.70
2018-12-03T13:47:53.170Z,0.50
2018-12-03T13:50:21.388Z,0.80
2018-12-03T13:52:49.613Z,0.67
2018-12-03T13:55:19.141Z,0.60
2018-12-03T13:57:47.336Z,0.70
2018-12-03T14:00:20.710Z,0.60
2018-12-03T14:03:21.943Z,0.60
2018-12-03T14:06:27.540Z,0.80
2018-12-03T14:09:04.717Z,0.50
2018-12-03T14:11:41.788Z,0.50
2018-12-03T14:14:20.736Z,0.70
2018-12-03T14:17:05.873Z,0.80
2018-12-03T14:19:34.181Z,0.67
2018-12-03T14:22:09.494Z,0.63
2018-12-03T14:24:37.676Z,0.67
2018-12-03T14:27:06.949Z,0.40
2018-12-03T14:29:35.201Z,0.60
2018-12-03T14:32:03.435Z,0.43
2018-12-03T14:34:31.611Z,0.90
2018-12-03T14:36:59.803Z,0.67
2018-12-03T14:39:27.945Z,0.60
2018-12-03T14:41:56.120Z,0.60
2018-12-03T14:44:24.321Z,0.87
2018-12-03T14:46:52.473Z,1.20
2018-12-03T14:49:20.645Z,1.30
2018-12-03T14:51:48.899Z,0.93
2018-12-03T14:54:17.205Z,0.90
2018-12-03T14:56:45.421Z,0.83
2018-12-03T14:59:13.673Z,0.70
2018-12-03T15:01:41.817Z,0.77
2018-12-03T15:04:12.653Z,1.10
2018-12-03T15:06:41.933Z,0.90
2018-12-03T15:09:10.511Z,0.70
2018-12-03T15:11:38.868Z,0.80
2018-12-03T15:14:07.113Z,0.80
2018-12-03T15:16:35.886Z,1.00
2018-12-03T15:19:04.660Z,1.10
2018-12-03T15:21:32.244Z,1.60
2018-12-03T15:24:00.502Z,1.40
2018-12-03T15:26:28.696Z,1.40
2018-12-03T15:28:56.889Z,1.63
2018-12-03T15:31:25.161Z,1.60
2018-12-03T15:33:53.422Z,1.40
2018-12-03T15:36:21.642Z,1.93
2018-12-03T15:38:49.849Z,1.50
2018-12-03T15:41:18.023Z,1.70
2018-12-03T15:43:46.229Z,2.20
2018-12-03T15:46:14.493Z,1.37
2018-12-03T15:48:42.673Z,1.43
2018-12-03T15:51:10.845Z,2.80
2018-12-03T15:53:39.099Z,2.60
2018-12-03T15:56:07.270Z,2.80
2018-12-03T15:58:35.491Z,2.17
2018-12-03T16:01:03.753Z,2.10
2018-12-03T16:03:32.013Z,3.10
2018-12-03T16:06:00.294Z,2.03
2018-12-03T16:08:28.879Z,4.63
2018-12-03T16:10:57.130Z,4.03
2018-12-03T16:13:25.328Z,4.27
2018-12-03T16:15:53.481Z,3.60
2018-12-03T16:18:21.668Z,3.73
2018-12-03T16:20:49.852Z,4.10
2018-12-03T16:23:18.101Z,4.03
2018-12-03T16:25:46.373Z,3.67
2018-12-03T16:28:14.573Z,4.33
2018-12-03T16:30:42.730Z,3.03
2018-12-03T16:33:10.888Z,3.37
2018-12-03T16:35:39.096Z,4.37
2018-12-03T16:38:07.341Z,4.07
2018-12-03T16:40:35.516Z,4.77
2018-12-03T16:43:03.729Z,4.87
2018-12-03T16:45:31.993Z,5.47
2018-12-03T16:48:00.302Z,5.90
2018-12-03T16:50:28.536Z,7.23
2018-12-03T16:52:56.721Z,6.83
2018-12-03T16:55:24.964Z,7.90
2018-12-03T16:57:53.165Z,7.33
2018-12-03T17:00:21.321Z,6.13
2018-12-03T17:02:49.481Z,6.93
2018-12-03T17:05:17.717Z,7.80
2018-12-03T17:07:45.950Z,8.10
2018-12-03T17:10:17.675Z,8.40
2018-12-03T17:12:46.463Z,8.13
2018-12-03T17:15:14.818Z,7.57
2018-12-03T17:17:43.061Z,6.83
2018-12-03T17:20:19.153Z,6.23
2018-12-03T17:23:55.878Z,6.23
2018-12-03T17:26:24.149Z,7.07
2018-12-03T17:28:52.420Z,6.57
2018-12-03T17:31:20.632Z,6.27
2018-12-03T17:33:48.785Z,7.57
2018-12-03T17:36:16.944Z,6.43
2018-12-03T17:38:45.174Z,6.53
2018-12-03T17:41:13.413Z,9.97
2018-12-03T17:43:41.579Z,40.87
2018-12-03T17:46:09.764Z,9.40
2018-12-03T17:48:37.964Z,28.47
2018-12-03T17:51:06.955Z,27.20
2018-12-03T17:53:34.301Z,84.57
2018-12-03T17:56:02.545Z,57.80
2018-12-03T17:58:30.720Z,45.83
2018-12-03T18:00:58.916Z,14.63
2018-12-03T18:03:27.163Z,13.03
2018-12-03T18:05:55.337Z,17.80
2018-12-03T18:08:23.525Z,19.00
2018-12-03T18:10:51.681Z,12.20
2018-12-03T18:13:19.876Z,13.87
2018-12-03T18:15:48.045Z,15.00
2018-12-03T18:18:16.241Z,13.47
2018-12-03T18:20:44.500Z,8.97
2018-12-03T18:23:12.682Z,8.60
2018-12-03T18:25:40.936Z,6.97
2018-12-03T18:28:09.197Z,4.07
2018-12-03T18:30:37.405Z,2.83
2018-12-03T18:33:05.648Z,2.37
2018-12-03T18:35:33.829Z,1.63
2018-12-03T18:38:02.012Z,1.90
2018-12-03T18:40:30.168Z,2.20
2018-12-03T18:42:58.347Z,1.90
2018-12-03T18:45:26.545Z,1.70
2018-12-03T18:47:54.874Z,2.00
2018-12-03T18:50:26.800Z,1.30
2018-12-03T18:52:55.037Z,1.20
2018-12-03T18:55:23.206Z,1.60
2018-12-03T18:57:55.453Z,1.93
2018-12-03T19:00:23.651Z,1.80
2018-12-03T19:02:51.817Z,2.37
2018-12-03T19:05:20.017Z,1.90
2018-12-03T19:07:48.268Z,1.90
2018-12-03T19:10:16.441Z,2.70
2018-12-03T19:12:44.696Z,3.77
2018-12-03T19:15:12.910Z,3.87
2018-12-03T19:17:41.060Z,3.70
2018-12-03T19:20:09.506Z,2.80
2018-12-03T19:22:37.725Z,2.33
2018-12-03T19:25:06.878Z,2.47
2018-12-03T19:27:35.129Z,3.23
2018-12-03T19:30:03.420Z,4.80
2018-12-03T19:32:31.817Z,4.37
2018-12-03T19:35:00.057Z,3.47
2018-12-03T19:37:28.305Z,2.63
2018-12-03T19:39:56.468Z,2.43
2018-12-03T19:42:24.673Z,2.70
2018-12-03T19:44:52.925Z,2.10
2018-12-03T19:47:21.097Z,2.00
2018-12-03T19:49:49.297Z,4.97
2018-12-03T19:52:17.646Z,8.47
2018-12-03T19:54:46.701Z,5.13
2018-12-03T19:57:16.424Z,3.20
2018-12-03T19:59:48.171Z,2.87
2018-12-03T20:02:16.400Z,3.07
2018-12-03T20:04:50.775Z,2.63
2018-12-03T20:07:26.311Z,2.73
2018-12-03T20:09:58.430Z,1.90
2018-12-03T20:15:37.304Z,2.07
2018-12-03T20:18:06.578Z,1.40
2018-12-03T20:20:42.135Z,1.80
2018-12-03T20:23:15.739Z,1.40
2018-12-03T20:26:06.556Z,2.73
2018-12-03T20:29:01.684Z,1.00
2018-12-03T20:31:42.585Z,0.90
2018-12-03T20:34:18.375Z,1.00
2018-12-03T20:39:02.376Z,1.47
2018-12-03T20:41:34.523Z,0.60
2018-12-03T20:44:13.569Z,0.77
2018-12-03T20:46:57.353Z,0.80
2018-12-03T20:49:32.241Z,0.73
2018-12-03T20:52:08.273Z,0.77
2018-12-03T20:54:36.584Z,0.90
2018-12-03T20:57:04.865Z,0.63
2018-12-03T20:59:33.137Z,0.80
2018-12-03T21:02:02.339Z,0.90
2018-12-03T21:04:30.545Z,0.90
2018-12-03T21:06:58.689Z,0.80
2018-12-03T21:09:26.945Z,0.73
2018-12-03T21:11:55.197Z,0.80
2018-12-03T21:14:23.321Z,0.60
2018-12-03T21:16:51.556Z,0.90
2018-12-03T21:19:19.775Z,0.60
2018-12-03T21:21:48.305Z,1.00
2018-12-03T21:24:16.541Z,0.70
2018-12-03T21:26:44.691Z,0.87
2018-12-03T21:29:12.857Z,0.90
2018-12-03T21:31:41.097Z,0.77
2018-12-03T21:34:09.213Z,0.87
2018-12-03T21:36:37.484Z,1.00
2018-12-03T21:39:07.385Z,0.60
2018-12-03T21:41:35.589Z,0.70
2018-12-03T21:44:03.745Z,0.90
2018-12-03T21:46:31.949Z,0.50
2018-12-03T21:49:00.088Z,0.60
2018-12-03T21:51:28.268Z,1.17
2018-12-03T21:53:56.461Z,0.50
2018-12-03T21:56:24.761Z,0.77
2018-12-03T21:58:52.889Z,0.50
2018-12-03T22:01:21.133Z,0.60
2018-12-03T22:03:49.393Z,0.43
2018-12-03T22:06:17.677Z,0.57
2018-12-03T22:08:45.963Z,0.40
2018-12-03T22:11:14.280Z,0.50
2018-12-03T22:13:42.505Z,0.50
2018-12-03T22:16:10.780Z,0.50
2018-12-03T22:18:38.935Z,0.40
2018-12-03T22:21:07.170Z,0.50
2018-12-03T22:23:35.366Z,0.40
2018-12-03T22:26:03.514Z,0.50
2018-12-03T22:28:31.693Z,0.50
2018-12-03T22:30:59.990Z,0.57
2018-12-03T22:33:28.233Z,0.50
2018-12-03T22:35:56.461Z,0.40
2018-12-03T22:38:24.701Z,0.33
2018-12-03T22:40:52.853Z,0.60
2018-12-03T22:43:21.034Z,0.63
2018-12-03T22:45:49.233Z,0.40
2018-12-03T22:48:17.381Z,0.40
2018-12-03T22:50:45.654Z,0.37
2018-12-03T22:53:13.892Z,0.60
2018-12-03T22:55:42.000Z,0.50
2018-12-03T22:58:10.344Z,0.40
2018-12-03T23:00:38.569Z,0.50
2018-12-03T23:03:06.833Z,0.50
2018-12-03T23:05:35.106Z,0.33
2018-12-03T23:08:03.296Z,0.60
2018-12-03T23:10:31.501Z,0.40
2018-12-03T23:12:59.724Z,0.40
2018-12-03T23:15:27.932Z,0.30
2018-12-03T23:17:56.076Z,0.40
2018-12-03T23:20:24.245Z,0.27
2018-12-03T23:22:52.461Z,0.30
2018-12-03T23:25:20.590Z,0.50
2018-12-03T23:27:48.833Z,0.50
2018-12-03T23:30:17.003Z,0.47
2018-12-03T23:32:45.105Z,0.37
2018-12-03T23:35:13.285Z,0.60
2018-12-03T23:37:41.496Z,0.57
2018-12-03T23:40:09.620Z,0.50
2018-12-03T23:42:37.801Z,0.70
2018-12-03T23:45:05.992Z,0.50
2018-12-03T23:47:34.149Z,0.60
2018-12-03T23:50:02.335Z,0.70
2018-12-03T23:52:30.632Z,0.70
2018-12-03T23:54:58.778Z,0.60
2018-12-03T23:57:27.014Z,0.70
2018-12-03T23:59:55.817Z,0.73
